createdAt,value
2022-12-03T00:02:25.951Z,36.95
2022-12-03T00:04:58.813Z,6.13
2022-12-03T00:07:31.686Z,11.85
2022-12-03T00:10:04.706Z,13.57
2022-12-03T00:12:37.594Z,20.50
2022-12-03T00:15:10.725Z,7.45
2022-12-03T00:17:43.666Z,23.13
2022-12-03T00:20:20.952Z,15.57
2022-12-03T00:22:54.395Z,13.18
2022-12-03T00:25:27.021Z,12.05
2022-12-03T00:28:00.009Z,12.40
2022-12-03T00:30:32.672Z,17.02
2022-12-03T00:33:06.635Z,13.13
2022-12-03T00:35:39.134Z,18.92
2022-12-03T00:38:12.128Z,19.08
2022-12-03T00:40:44.647Z,4.53
2022-12-03T00:43:18.059Z,17.15
2022-12-03T00:45:50.694Z,12.77
2022-12-03T00:48:23.702Z,27.88
2022-12-03T00:50:56.249Z,19.70
2022-12-03T00:53:29.288Z,11.93
2022-12-03T00:56:02.029Z,18.27
2022-12-03T00:58:35.190Z,11.00
2022-12-03T01:01:07.787Z,13.93
2022-12-03T01:03:40.824Z,16.30
2022-12-03T01:06:13.296Z,12.45
2022-12-03T01:08:46.292Z,15.25
2022-12-03T01:11:39.093Z,12.77
2022-12-03T01:14:14.394Z,11.18
2022-12-03T01:16:47.501Z,29.20
2022-12-03T01:19:20.540Z,30.05
2022-12-03T01:21:53.221Z,12.70
2022-12-03T01:24:26.079Z,12.25
2022-12-03T01:26:58.699Z,13.10
2022-12-03T01:29:31.658Z,18.27
2022-12-03T01:32:22.061Z,12.02
2022-12-03T01:34:56.164Z,12.18
2022-12-03T01:37:29.311Z,16.05
2022-12-03T01:40:02.441Z,21.50
2022-12-03T01:42:37.333Z,11.15
2022-12-03T01:45:19.388Z,13.63
2022-12-03T01:47:51.990Z,12.60
2022-12-03T01:50:30.667Z,15.93
2022-12-03T01:53:04.305Z,9.40
2022-12-03T01:55:37.953Z,15.48
2022-12-03T01:58:13.036Z,12.27
2022-12-03T02:00:45.996Z,11.88
2022-12-03T02:03:25.865Z,15.60
2022-12-03T02:05:58.761Z,9.45
2022-12-03T02:08:31.358Z,18.85
2022-12-03T02:11:24.584Z,13.85
2022-12-03T02:14:00.995Z,25.27
2022-12-03T02:16:35.303Z,19.15
2022-12-03T02:19:12.570Z,7.97
2022-12-03T02:21:51.517Z,20.15
2022-12-03T02:24:24.146Z,16.88
2022-12-03T02:26:57.027Z,15.75
2022-12-03T02:29:30.591Z,13.57
2022-12-03T02:32:03.596Z,9.43
2022-12-03T02:34:46.195Z,20.60
2022-12-03T02:37:21.936Z,14.23
2022-12-03T02:39:55.697Z,13.98
2022-12-03T02:42:38.061Z,15.02
2022-12-03T02:45:13.116Z,11.02
2022-12-03T02:47:54.539Z,20.88
2022-12-03T02:50:29.165Z,7.87
2022-12-03T02:53:03.316Z,9.15
2022-12-03T02:55:37.296Z,16.02
2022-12-03T02:58:11.702Z,14.57
2022-12-03T03:00:44.483Z,21.73
2022-12-03T03:03:19.135Z,12.15
2022-12-03T03:05:52.051Z,10.43
2022-12-03T03:08:25.816Z,16.33
2022-12-03T03:10:59.267Z,18.65
2022-12-03T03:13:33.114Z,12.05
2022-12-03T03:16:07.116Z,16.67
2022-12-03T03:18:40.441Z,18.85
2022-12-03T03:21:13.332Z,14.75
2022-12-03T03:23:46.269Z,8.70
2022-12-03T03:26:18.812Z,17.48
2022-12-03T03:28:52.366Z,15.55
2022-12-03T03:31:24.990Z,18.42
2022-12-03T03:33:58.114Z,20.00
2022-12-03T03:36:31.197Z,20.98
2022-12-03T03:39:05.320Z,18.42
2022-12-03T03:41:38.360Z,16.00
2022-12-03T03:44:11.273Z,13.00
2022-12-03T03:46:43.899Z,35.55
2022-12-03T03:49:17.055Z,21.67
2022-12-03T03:51:49.933Z,25.10
2022-12-03T03:54:23.489Z,13.65
2022-12-03T03:56:56.054Z,34.63
2022-12-03T03:59:29.500Z,16.48
2022-12-03T04:02:02.052Z,15.93
2022-12-03T04:04:36.999Z,20.85
2022-12-03T04:07:09.607Z,11.63
2022-12-03T04:09:42.556Z,22.33
2022-12-03T04:12:33.585Z,23.17
2022-12-03T04:15:06.914Z,20.83
2022-12-03T04:17:39.420Z,15.63
2022-12-03T04:20:12.645Z,13.52
2022-12-03T04:22:45.205Z,22.92
2022-12-03T04:25:36.398Z,18.30
2022-12-03T04:28:27.680Z,28.73
2022-12-03T04:31:00.757Z,18.50
2022-12-03T04:33:51.812Z,27.73
2022-12-03T04:36:24.759Z,20.23
2022-12-03T04:38:57.344Z,26.35
2022-12-03T04:41:30.228Z,22.65
2022-12-03T04:44:21.139Z,31.13
2022-12-03T04:46:54.024Z,15.40
2022-12-03T04:49:26.671Z,19.75
2022-12-03T04:51:59.703Z,18.55
2022-12-03T04:54:32.802Z,16.25
2022-12-03T04:57:06.317Z,17.40
2022-12-03T04:59:39.346Z,19.35
2022-12-03T05:02:12.379Z,22.45
2022-12-03T05:04:45.219Z,15.50
2022-12-03T05:07:18.107Z,17.65
2022-12-03T05:09:50.725Z,19.48
2022-12-03T05:12:23.654Z,18.85
2022-12-03T05:14:56.438Z,25.60
2022-12-03T05:17:29.560Z,27.90
2022-12-03T05:20:20.745Z,24.25
2022-12-03T05:22:53.563Z,23.20
2022-12-03T05:25:26.117Z,12.90
2022-12-03T05:27:59.123Z,21.45
2022-12-03T05:30:31.743Z,34.35
2022-12-03T05:33:04.793Z,19.38
2022-12-03T05:35:37.415Z,23.08
2022-12-03T05:38:10.324Z,27.10
2022-12-03T05:40:42.852Z,10.75
2022-12-03T05:43:15.717Z,16.42
2022-12-03T05:45:48.278Z,10.90
2022-12-03T05:48:21.355Z,18.45
2022-12-03T05:50:53.876Z,28.33
2022-12-03T05:53:26.818Z,13.73
2022-12-03T05:55:59.439Z,38.15
2022-12-03T05:58:32.958Z,19.98
2022-12-03T06:01:05.469Z,18.45
2022-12-03T06:03:38.479Z,25.05
2022-12-03T06:06:11.343Z,26.65
2022-12-03T06:08:44.324Z,23.10
2022-12-03T06:11:16.811Z,30.83
2022-12-03T06:13:49.613Z,33.72
2022-12-03T06:16:22.385Z,23.10
2022-12-03T06:18:55.378Z,20.13
2022-12-03T06:21:27.947Z,23.25
2022-12-03T06:24:01.632Z,27.85
2022-12-03T06:26:34.164Z,30.23
2022-12-03T06:29:07.079Z,24.60
2022-12-03T06:31:39.723Z,26.38
2022-12-03T06:34:12.569Z,33.58
2022-12-03T06:36:47.159Z,34.05
2022-12-03T06:39:20.165Z,22.20
2022-12-03T06:41:52.640Z,21.65
2022-12-03T06:44:25.580Z,23.00
2022-12-03T06:46:58.358Z,32.40
2022-12-03T06:49:31.630Z,24.90
2022-12-03T06:52:04.417Z,24.67
2022-12-03T06:54:37.259Z,30.98
2022-12-03T06:57:09.739Z,29.98
2022-12-03T06:59:42.876Z,33.20
2022-12-03T07:02:15.443Z,23.23
2022-12-03T07:04:48.502Z,29.13
2022-12-03T07:07:21.514Z,27.65
2022-12-03T07:09:54.619Z,27.88
2022-12-03T07:12:27.430Z,35.55
2022-12-03T07:15:00.298Z,33.28
2022-12-03T07:17:34.719Z,50.58
2022-12-03T07:20:08.144Z,37.90
2022-12-03T07:22:40.654Z,32.70
2022-12-03T07:25:15.772Z,28.60
2022-12-03T07:27:52.284Z,22.45
2022-12-03T07:30:26.007Z,29.95
2022-12-03T07:32:58.571Z,32.78
2022-12-03T07:35:31.523Z,27.23
2022-12-03T07:38:04.085Z,33.30
2022-12-03T07:40:36.945Z,32.08
2022-12-03T07:43:09.564Z,26.45
2022-12-03T07:45:42.508Z,42.58
2022-12-03T07:48:15.158Z,45.55
2022-12-03T07:50:48.100Z,22.50
2022-12-03T07:53:21.438Z,37.72
2022-12-03T07:55:54.581Z,45.75
2022-12-03T07:58:27.241Z,40.85
2022-12-03T08:01:00.362Z,40.55
2022-12-03T08:03:33.015Z,27.40
2022-12-03T08:06:06.045Z,30.77
2022-12-03T08:08:38.743Z,48.67
2022-12-03T08:11:14.344Z,40.53
2022-12-03T08:13:46.984Z,36.55
2022-12-03T08:16:20.887Z,37.47
2022-12-03T08:18:54.969Z,36.38
2022-12-03T08:21:33.751Z,34.17
2022-12-03T08:24:17.024Z,45.67
2022-12-03T08:26:50.283Z,35.63
2022-12-03T08:29:22.905Z,32.70
2022-12-03T08:31:57.379Z,22.75
2022-12-03T08:34:32.726Z,41.75
2022-12-03T08:37:09.335Z,25.42
2022-12-03T08:39:45.009Z,29.20
2022-12-03T08:42:43.815Z,31.63
2022-12-03T08:45:35.561Z,26.00
2022-12-03T08:48:14.680Z,20.98
2022-12-03T08:50:47.703Z,24.75
2022-12-03T08:53:31.492Z,44.03
2022-12-03T08:56:22.399Z,41.22
2022-12-03T08:59:14.211Z,37.90
2022-12-03T09:01:47.607Z,41.50
2022-12-03T09:04:20.707Z,23.92
2022-12-03T09:06:53.842Z,47.00
2022-12-03T09:09:26.935Z,42.90
2022-12-03T09:11:59.553Z,37.97
2022-12-03T09:14:32.506Z,36.33
2022-12-03T09:17:05.216Z,26.88
2022-12-03T09:19:44.324Z,26.90
2022-12-03T09:22:18.908Z,34.72
2022-12-03T09:24:52.361Z,34.00
2022-12-03T09:27:25.428Z,27.13
2022-12-03T09:29:58.812Z,38.95
2022-12-03T09:32:31.388Z,56.13
2022-12-03T09:35:05.274Z,38.88
2022-12-03T09:37:37.757Z,30.50
2022-12-03T09:40:11.134Z,42.88
2022-12-03T09:42:43.786Z,53.33
2022-12-03T09:45:17.147Z,48.63
2022-12-03T09:47:50.192Z,38.25
2022-12-03T09:50:24.585Z,45.30
2022-12-03T09:53:01.914Z,37.38
2022-12-03T09:55:34.995Z,37.97
2022-12-03T09:58:11.616Z,47.40
2022-12-03T10:00:47.178Z,51.58
2022-12-03T10:03:26.539Z,44.08
2022-12-03T10:06:02.513Z,37.60
2022-12-03T10:08:35.062Z,43.60
2022-12-03T10:11:07.963Z,48.13
2022-12-03T10:13:40.897Z,47.83
2022-12-03T10:16:15.774Z,52.75
2022-12-03T10:18:53.822Z,55.08
2022-12-03T10:21:26.679Z,45.53
2022-12-03T10:24:31.521Z,49.88
2022-12-03T10:27:24.139Z,54.85
2022-12-03T10:29:57.927Z,45.97
2022-12-03T10:32:50.664Z,51.53
2022-12-03T10:35:52.504Z,44.42
2022-12-03T10:40:58.013Z,33.22
2022-12-03T10:43:30.922Z,46.60
2022-12-03T10:46:04.998Z,43.80
2022-12-03T10:48:38.497Z,49.53
2022-12-03T10:51:29.186Z,55.47
2022-12-03T10:54:04.020Z,35.22
2022-12-03T10:56:36.635Z,40.22
2022-12-03T10:59:13.453Z,54.42
2022-12-03T11:01:46.586Z,44.80
2022-12-03T11:04:21.868Z,46.10
2022-12-03T11:06:54.509Z,42.83
2022-12-03T11:09:29.505Z,40.58
2022-12-03T11:12:16.176Z,40.20
2022-12-03T11:14:49.286Z,48.97
2022-12-03T11:17:40.676Z,37.70
2022-12-03T11:20:25.910Z,43.15
2022-12-03T11:22:58.893Z,48.67
2022-12-03T11:25:46.273Z,42.90
2022-12-03T11:28:28.766Z,32.42
2022-12-03T11:31:03.560Z,47.35
2022-12-03T11:33:37.380Z,38.38
2022-12-03T11:36:11.560Z,41.53
2022-12-03T11:38:52.660Z,42.55
2022-12-03T11:41:28.219Z,42.67
2022-12-03T11:44:03.444Z,48.35
2022-12-03T11:46:36.590Z,42.78
2022-12-03T11:49:35.604Z,42.30
2022-12-03T11:52:41.177Z,44.85
2022-12-03T11:55:18.614Z,40.28
2022-12-03T11:57:57.381Z,38.33
2022-12-03T12:00:29.963Z,46.53
2022-12-03T12:03:02.984Z,45.53
2022-12-03T12:05:35.951Z,42.13
2022-12-03T12:08:18.516Z,34.75
2022-12-03T12:10:51.131Z,55.15
2022-12-03T12:13:34.188Z,34.80
2022-12-03T12:16:08.193Z,43.58
2022-12-03T12:18:41.302Z,50.35
2022-12-03T12:21:32.586Z,50.55
2022-12-03T12:24:24.106Z,43.33
2022-12-03T12:26:57.687Z,60.37
2022-12-03T12:29:30.561Z,43.92
2022-12-03T12:32:11.605Z,40.35
2022-12-03T12:34:46.176Z,64.68
2022-12-03T12:37:33.228Z,44.00
2022-12-03T12:40:11.891Z,44.58
2022-12-03T12:42:49.471Z,35.85
2022-12-03T12:45:24.235Z,46.17
2022-12-03T12:48:07.747Z,58.22
2022-12-03T12:50:45.199Z,37.03
2022-12-03T12:53:26.764Z,58.22
2022-12-03T12:56:01.310Z,44.65
2022-12-03T12:58:34.547Z,54.72
2022-12-03T13:01:11.736Z,55.35
2022-12-03T13:03:44.389Z,51.05
2022-12-03T13:06:17.486Z,49.38
2022-12-03T13:08:50.587Z,56.58
2022-12-03T13:11:42.414Z,50.95
2022-12-03T13:14:17.254Z,52.22
2022-12-03T13:16:51.337Z,41.95
2022-12-03T13:19:23.988Z,52.72
2022-12-03T13:22:00.990Z,49.17
2022-12-03T13:24:36.867Z,44.67
2022-12-03T13:27:19.845Z,46.47
2022-12-03T13:30:11.314Z,58.58
2022-12-03T13:32:44.763Z,54.65
2022-12-03T13:35:30.481Z,41.05
2022-12-03T13:38:09.935Z,49.17
2022-12-03T13:40:42.709Z,45.92
2022-12-03T13:43:16.824Z,48.42
2022-12-03T13:45:50.377Z,60.13
2022-12-03T13:48:31.048Z,41.38
2022-12-03T13:51:25.131Z,55.85
2022-12-03T13:53:59.195Z,63.03
2022-12-03T13:56:33.039Z,50.10
2022-12-03T13:59:06.403Z,47.05
2022-12-03T14:01:38.980Z,54.25
2022-12-03T14:04:12.502Z,46.67
2022-12-03T14:06:45.061Z,56.85
2022-12-03T14:09:18.166Z,46.55
2022-12-03T14:12:09.515Z,46.88
2022-12-03T14:14:42.461Z,59.63
2022-12-03T14:17:15.050Z,42.33
2022-12-03T14:19:48.619Z,44.33
2022-12-03T14:22:23.867Z,48.10
2022-12-03T14:24:56.930Z,62.00
2022-12-03T14:27:29.599Z,45.80
2022-12-03T14:30:02.579Z,53.60
2022-12-03T14:32:35.068Z,51.95
2022-12-03T14:35:10.039Z,52.60
2022-12-03T14:37:42.944Z,70.22
2022-12-03T14:40:21.258Z,63.05
2022-12-03T14:42:54.400Z,39.47
2022-12-03T14:45:29.041Z,45.78
2022-12-03T14:48:01.658Z,63.17
2022-12-03T14:50:34.507Z,47.22
2022-12-03T14:53:07.023Z,60.47
2022-12-03T14:55:39.980Z,68.50
2022-12-03T14:58:12.543Z,70.63
2022-12-03T15:00:45.405Z,62.97
2022-12-03T15:03:17.860Z,70.38
2022-12-03T15:05:50.777Z,63.10
2022-12-03T15:08:23.452Z,61.42
2022-12-03T15:10:56.509Z,53.70
2022-12-03T15:13:29.054Z,47.05
2022-12-03T15:16:02.002Z,54.83
2022-12-03T15:18:35.189Z,59.17
2022-12-03T15:21:08.279Z,67.55
2022-12-03T15:23:40.792Z,61.85
2022-12-03T15:26:13.632Z,62.47
2022-12-03T15:28:48.444Z,62.85
2022-12-03T15:31:21.648Z,70.25
2022-12-03T15:33:54.232Z,57.72
2022-12-03T15:36:27.356Z,77.20
2022-12-03T15:39:00.062Z,57.00
2022-12-03T15:41:33.158Z,87.35
2022-12-03T15:44:05.735Z,69.80
2022-12-03T15:46:38.687Z,61.72
2022-12-03T15:49:11.452Z,69.78
2022-12-03T15:51:44.311Z,51.13
2022-12-03T15:54:16.771Z,67.70
2022-12-03T15:56:52.781Z,74.55
2022-12-03T15:59:29.556Z,60.33
2022-12-03T16:02:02.579Z,59.40
2022-12-03T16:04:35.311Z,72.18
2022-12-03T16:07:08.262Z,57.67
2022-12-03T16:09:40.866Z,76.18
2022-12-03T16:12:13.718Z,67.57
2022-12-03T16:14:46.230Z,64.50
2022-12-03T16:17:19.220Z,76.30
2022-12-03T16:19:52.188Z,66.65
2022-12-03T16:22:25.401Z,44.88
2022-12-03T16:24:57.920Z,54.95
2022-12-03T16:27:31.007Z,77.38
2022-12-03T16:30:04.696Z,57.97
2022-12-03T16:32:37.747Z,76.68
2022-12-03T16:35:10.264Z,70.57
2022-12-03T16:37:43.169Z,60.92
2022-12-03T16:40:15.754Z,80.00
2022-12-03T16:42:48.907Z,69.68
2022-12-03T16:45:24.435Z,74.88
2022-12-03T16:47:57.434Z,63.03
2022-12-03T16:50:30.612Z,70.20
2022-12-03T16:53:03.740Z,74.30
2022-12-03T16:55:51.965Z,67.93
2022-12-03T16:58:24.941Z,67.40
2022-12-03T17:00:57.544Z,67.30
2022-12-03T17:03:34.010Z,84.18
2022-12-03T17:06:07.266Z,71.22
2022-12-03T17:08:43.171Z,70.88
2022-12-03T17:11:18.383Z,53.60
2022-12-03T17:13:51.356Z,106.13
2022-12-03T17:16:24.281Z,62.90
2022-12-03T17:18:57.398Z,88.82
2022-12-03T17:21:33.737Z,72.80
2022-12-03T17:24:09.141Z,60.70
2022-12-03T17:26:42.421Z,78.90
2022-12-03T17:29:15.509Z,69.00
2022-12-03T17:31:48.233Z,79.25
2022-12-03T17:34:21.187Z,73.95
2022-12-03T17:36:53.807Z,87.38
2022-12-03T17:39:26.737Z,79.95
2022-12-03T17:41:59.914Z,86.03
2022-12-03T17:44:32.798Z,71.05
2022-12-03T17:47:06.037Z,69.70
2022-12-03T17:49:39.030Z,88.93
2022-12-03T17:52:11.563Z,104.68
2022-12-03T17:55:08.977Z,86.82
2022-12-03T17:57:37.019Z,85.10
2022-12-03T18:00:10.227Z,74.45
2022-12-03T18:02:45.264Z,84.35
2022-12-03T18:05:18.502Z,69.25
2022-12-03T18:07:51.781Z,77.25
2022-12-03T18:10:24.785Z,60.50
2022-12-03T18:13:01.672Z,100.18
2022-12-03T18:15:34.940Z,86.22
2022-12-03T18:18:07.494Z,88.25
2022-12-03T18:20:40.376Z,82.45
2022-12-03T18:23:12.966Z,92.70
2022-12-03T18:25:45.795Z,87.70
2022-12-03T18:28:18.378Z,63.28
2022-12-03T18:30:52.897Z,62.40
2022-12-03T18:33:25.628Z,83.47
2022-12-03T18:35:58.713Z,81.50
2022-12-03T18:38:31.892Z,86.60
2022-12-03T18:41:04.818Z,67.60
2022-12-03T18:43:37.510Z,51.60
2022-12-03T18:46:31.252Z,79.10
2022-12-03T18:49:04.731Z,72.43
2022-12-03T18:51:37.666Z,64.88
2022-12-03T18:54:12.199Z,57.47
2022-12-03T18:56:45.129Z,71.57
2022-12-03T18:59:17.883Z,73.63
2022-12-03T19:01:50.977Z,72.68
2022-12-03T19:04:23.603Z,87.30
2022-12-03T19:06:56.563Z,78.28
2022-12-03T19:09:29.203Z,75.07
2022-12-03T19:12:02.146Z,79.53
2022-12-03T19:14:35.614Z,66.35
2022-12-03T19:17:09.800Z,75.18
2022-12-03T19:19:42.417Z,65.28
2022-12-03T19:22:15.390Z,77.80
2022-12-03T19:24:48.618Z,64.45
2022-12-03T19:27:21.631Z,57.70
2022-12-03T19:29:54.388Z,60.75
2022-12-03T19:32:27.514Z,82.28
2022-12-03T19:35:01.398Z,72.18
2022-12-03T19:37:34.515Z,73.35
2022-12-03T19:40:07.569Z,60.25
2022-12-03T19:42:40.538Z,67.85
2022-12-03T19:45:13.127Z,55.75
2022-12-03T19:47:46.055Z,74.47
2022-12-03T19:50:23.042Z,65.82
2022-12-03T19:52:56.926Z,59.28
2022-12-03T19:55:29.571Z,73.50
2022-12-03T19:58:02.647Z,67.00
2022-12-03T20:00:36.029Z,72.95
2022-12-03T20:03:09.035Z,72.13
2022-12-03T20:05:41.664Z,66.07
2022-12-03T20:08:14.617Z,90.55
2022-12-03T20:10:47.197Z,59.72
2022-12-03T20:13:20.028Z,75.53
2022-12-03T20:15:52.627Z,61.63
2022-12-03T20:18:25.801Z,57.20
2022-12-03T20:20:59.871Z,65.32
2022-12-03T20:23:32.865Z,64.78
2022-12-03T20:26:09.592Z,61.53
2022-12-03T20:28:42.946Z,56.33
2022-12-03T20:31:16.777Z,67.20
2022-12-03T20:33:50.823Z,69.53
2022-12-03T20:36:23.635Z,59.72
2022-12-03T20:38:57.373Z,59.75
2022-12-03T20:41:30.022Z,62.58
2022-12-03T20:44:03.564Z,52.67
2022-12-03T20:46:36.647Z,58.53
2022-12-03T20:49:09.672Z,54.38
2022-12-03T20:51:43.043Z,55.65
2022-12-03T20:54:16.341Z,67.30
2022-12-03T20:56:49.363Z,78.25
2022-12-03T20:59:23.585Z,73.85
2022-12-03T21:01:56.248Z,58.78
2022-12-03T21:04:29.236Z,61.40
2022-12-03T21:07:01.906Z,64.82
2022-12-03T21:09:34.860Z,57.17
2022-12-03T21:12:07.535Z,57.47
2022-12-03T21:14:40.479Z,50.00
2022-12-03T21:17:13.157Z,62.15
2022-12-03T21:19:47.607Z,61.30
2022-12-03T21:22:20.128Z,61.95
2022-12-03T21:24:55.284Z,62.17
2022-12-03T21:27:28.004Z,41.75
2022-12-03T21:30:01.138Z,59.10
2022-12-03T21:32:33.636Z,51.72
2022-12-03T21:35:06.688Z,50.35
2022-12-03T21:37:39.287Z,44.17
2022-12-03T21:40:12.292Z,56.38
2022-12-03T21:42:44.780Z,53.20
2022-12-03T21:45:17.843Z,65.60
2022-12-03T21:47:50.402Z,52.38
2022-12-03T21:50:23.328Z,58.42
2022-12-03T21:52:56.180Z,59.22
2022-12-03T21:55:29.072Z,60.65
2022-12-03T21:58:01.662Z,64.75
2022-12-03T22:00:34.830Z,63.55
2022-12-03T22:03:07.537Z,61.28
2022-12-03T22:05:40.677Z,59.85
2022-12-03T22:08:14.168Z,59.80
2022-12-03T22:10:47.147Z,47.53
2022-12-03T22:13:19.652Z,67.43
2022-12-03T22:15:52.665Z,57.78
2022-12-03T22:18:25.318Z,58.50
2022-12-03T22:20:58.272Z,57.72
2022-12-03T22:23:31.676Z,54.55
2022-12-03T22:26:06.015Z,68.93
2022-12-03T22:28:38.877Z,66.07
2022-12-03T22:31:12.136Z,48.15
2022-12-03T22:33:48.614Z,58.50
2022-12-03T22:36:22.069Z,47.65
2022-12-03T22:38:54.770Z,51.20
2022-12-03T22:41:27.749Z,54.97
2022-12-03T22:44:00.303Z,50.67
2022-12-03T22:46:33.362Z,50.80
2022-12-03T22:49:07.675Z,60.95
2022-12-03T22:51:40.755Z,52.65
2022-12-03T22:54:14.029Z,40.17
2022-12-03T22:56:47.076Z,57.50
2022-12-03T22:59:19.630Z,56.95
2022-12-03T23:01:52.559Z,51.05
2022-12-03T23:04:25.119Z,61.03
2022-12-03T23:06:58.113Z,53.17
2022-12-03T23:09:30.762Z,40.53
2022-12-03T23:12:03.769Z,43.70
2022-12-03T23:14:37.111Z,53.50
2022-12-03T23:17:09.963Z,60.05
2022-12-03T23:19:42.500Z,54.55
2022-12-03T23:22:15.412Z,50.88
2022-12-03T23:24:48.419Z,47.00
2022-12-03T23:27:21.335Z,44.53
2022-12-03T23:29:54.218Z,50.17
2022-12-03T23:32:27.243Z,67.68
2022-12-03T23:34:59.823Z,54.28
2022-12-03T23:37:32.696Z,55.60
2022-12-03T23:40:05.605Z,61.17
2022-12-03T23:42:38.576Z,56.50
2022-12-03T23:45:11.306Z,62.55
2022-12-03T23:47:44.130Z,67.65
2022-12-03T23:50:16.683Z,50.90
2022-12-03T23:52:49.567Z,43.10
2022-12-03T23:55:22.079Z,62.60
2022-12-03T23:57:55.065Z,57.63
